sensor_id;sensor_type;location;lat;lon;timestamp;temperature;humidity
9537;DHT22;4807;48.024;11.726;2023-07-16T00:02:53;21.80;93.40
9537;DHT22;4807;48.024;11.726;2023-07-16T00:06:02;21.70;93.80
9537;DHT22;4807;48.024;11.726;2023-07-16T00:09:11;21.60;94.20
9537;DHT22;4807;48.024;11.726;2023-07-16T00:12:19;21.60;94.50
9537;DHT22;4807;48.024;11.726;2023-07-16T00:15:27;21.50;94.90
9537;DHT22;4807;48.024;11.726;2023-07-16T00:18:37;21.40;95.30
9537;DHT22;4807;48.024;11.726;2023-07-16T00:21:45;21.30;95.70
9537;DHT22;4807;48.024;11.726;2023-07-16T00:24:53;21.20;96.40
9537;DHT22;4807;48.024;11.726;2023-07-16T00:28:02;21.00;97.00
9537;DHT22;4807;48.024;11.726;2023-07-16T00:31:11;20.90;98.10
9537;DHT22;4807;48.024;11.726;2023-07-16T00:34:20;20.80;99.10
9537;DHT22;4807;48.024;11.726;2023-07-16T00:37:29;20.70;99.90
9537;DHT22;4807;48.024;11.726;2023-07-16T00:40:37;20.60;99.90
9537;DHT22;4807;48.024;11.726;2023-07-16T00:43:45;20.40;99.90
9537;DHT22;4807;48.024;11.726;2023-07-16T00:46:54;20.30;99.90
9537;DHT22;4807;48.024;11.726;2023-07-16T00:50:05;20.30;99.90
9537;DHT22;4807;48.024;11.726;2023-07-16T00:53:15;20.20;99.90
9537;DHT22;4807;48.024;11.726;2023-07-16T00:56:24;20.10;99.90
9537;DHT22;4807;48.024;11.726;2023-07-16T00:59:33;20.00;99.90
9537;DHT22;4807;48.024;11.726;2023-07-16T01:02:41;20.00;99.90
9537;DHT22;4807;48.024;11.726;2023-07-16T01:05:58;19.80;99.90
9537;DHT22;4807;48.024;11.726;2023-07-16T01:09:15;19.70;99.90
9537;DHT22;4807;48.024;11.726;2023-07-16T01:12:26;19.80;99.90
9537;DHT22;4807;48.024;11.726;2023-07-16T01:15:35;19.80;99.90
9537;DHT22;4807;48.024;11.726;2023-07-16T01:18:43;19.90;99.90
9537;DHT22;4807;48.024;11.726;2023-07-16T01:25:50;19.90;99.90
9537;DHT22;4807;48.024;11.726;2023-07-16T01:29:39;19.80;99.90
9537;DHT22;4807;48.024;11.726;2023-07-16T01:32:52;19.80;99.90
9537;DHT22;4807;48.024;11.726;2023-07-16T01:36:02;19.80;99.90
9537;DHT22;4807;48.024;11.726;2023-07-16T01:39:11;19.70;99.90
9537;DHT22;4807;48.024;11.726;2023-07-16T01:42:19;19.60;99.90
9537;DHT22;4807;48.024;11.726;2023-07-16T01:45:29;19.70;99.90
9537;DHT22;4807;48.024;11.726;2023-07-16T01:48:38;19.60;99.90
9537;DHT22;4807;48.024;11.726;2023-07-16T01:51:47;19.70;99.90
9537;DHT22;4807;48.024;11.726;2023-07-16T01:54:55;19.70;99.90
9537;DHT22;4807;48.024;11.726;2023-07-16T01:58:04;19.60;99.90
9537;DHT22;4807;48.024;11.726;2023-07-16T02:01:14;19.60;99.90
9537;DHT22;4807;48.024;11.726;2023-07-16T02:04:23;19.70;99.90
9537;DHT22;4807;48.024;11.726;2023-07-16T02:07:32;19.90;99.90
9537;DHT22;4807;48.024;11.726;2023-07-16T02:10:41;19.80;99.90
9537;DHT22;4807;48.024;11.726;2023-07-16T02:13:51;19.90;99.90
9537;DHT22;4807;48.024;11.726;2023-07-16T02:17:00;20.00;99.90
9537;DHT22;4807;48.024;11.726;2023-07-16T02:20:10;20.00;99.90
9537;DHT22;4807;48.024;11.726;2023-07-16T02:23:19;20.00;99.90
9537;DHT22;4807;48.024;11.726;2023-07-16T02:26:27;20.10;99.90
9537;DHT22;4807;48.024;11.726;2023-07-16T02:29:35;19.70;99.90
9537;DHT22;4807;48.024;11.726;2023-07-16T02:32:45;20.10;99.90
9537;DHT22;4807;48.024;11.726;2023-07-16T02:35:54;20.70;99.90
9537;DHT22;4807;48.024;11.726;2023-07-16T02:39:03;20.00;99.90
9537;DHT22;4807;48.024;11.726;2023-07-16T02:42:11;20.10;99.90
9537;DHT22;4807;48.024;11.726;2023-07-16T02:45:20;20.00;99.90
9537;DHT22;4807;48.024;11.726;2023-07-16T02:48:30;19.90;99.90
9537;DHT22;4807;48.024;11.726;2023-07-16T02:51:38;19.90;99.90
9537;DHT22;4807;48.024;11.726;2023-07-16T02:54:47;19.90;99.90
9537;DHT22;4807;48.024;11.726;2023-07-16T02:57:55;19.90;99.90
9537;DHT22;4807;48.024;11.726;2023-07-16T03:01:04;20.00;99.90
9537;DHT22;4807;48.024;11.726;2023-07-16T03:04:15;20.00;99.90
9537;DHT22;4807;48.024;11.726;2023-07-16T03:07:24;20.10;99.90
9537;DHT22;4807;48.024;11.726;2023-07-16T03:10:32;20.20;99.90
9537;DHT22;4807;48.024;11.726;2023-07-16T03:13:40;20.30;99.90
9537;DHT22;4807;48.024;11.726;2023-07-16T03:16:49;20.40;99.90
9537;DHT22;4807;48.024;11.726;2023-07-16T03:19:59;20.30;99.90
9537;DHT22;4807;48.024;11.726;2023-07-16T03:23:08;20.40;99.90
9537;DHT22;4807;48.024;11.726;2023-07-16T03:26:16;20.50;99.90
9537;DHT22;4807;48.024;11.726;2023-07-16T03:29:29;20.40;99.90
9537;DHT22;4807;48.024;11.726;2023-07-16T03:32:37;20.30;99.90
9537;DHT22;4807;48.024;11.726;2023-07-16T03:36:00;20.40;99.90
9537;DHT22;4807;48.024;11.726;2023-07-16T03:39:09;20.40;99.90
9537;DHT22;4807;48.024;11.726;2023-07-16T03:42:18;20.50;99.90
9537;DHT22;4807;48.024;11.726;2023-07-16T03:45:26;20.50;99.90
9537;DHT22;4807;48.024;11.726;2023-07-16T03:48:35;20.50;99.90
9537;DHT22;4807;48.024;11.726;2023-07-16T03:51:45;20.40;99.90
9537;DHT22;4807;48.024;11.726;2023-07-16T03:54:53;20.40;99.90
9537;DHT22;4807;48.024;11.726;2023-07-16T03:58:02;20.40;99.90
9537;DHT22;4807;48.024;11.726;2023-07-16T04:01:11;20.30;99.90
9537;DHT22;4807;48.024;11.726;2023-07-16T04:04:20;20.30;99.90
9537;DHT22;4807;48.024;11.726;2023-07-16T04:07:30;20.20;99.90
9537;DHT22;4807;48.024;11.726;2023-07-16T04:10:38;20.10;99.90
9537;DHT22;4807;48.024;11.726;2023-07-16T04:13:47;19.80;99.90
9537;DHT22;4807;48.024;11.726;2023-07-16T04:16:56;19.60;99.90
9537;DHT22;4807;48.024;11.726;2023-07-16T04:20:05;19.50;99.90
9537;DHT22;4807;48.024;11.726;2023-07-16T04:23:16;19.40;99.90
9537;DHT22;4807;48.024;11.726;2023-07-16T04:26:25;19.40;99.90
9537;DHT22;4807;48.024;11.726;2023-07-16T04:29:33;19.40;99.90
9537;DHT22;4807;48.024;11.726;2023-07-16T04:32:41;19.40;99.90
9537;DHT22;4807;48.024;11.726;2023-07-16T04:35:50;19.40;99.90
9537;DHT22;4807;48.024;11.726;2023-07-16T04:39:00;19.30;99.90
9537;DHT22;4807;48.024;11.726;2023-07-16T04:42:08;19.20;99.90
9537;DHT22;4807;48.024;11.726;2023-07-16T04:45:17;19.20;99.90
9537;DHT22;4807;48.024;11.726;2023-07-16T04:48:26;19.20;99.90
9537;DHT22;4807;48.024;11.726;2023-07-16T04:51:34;19.10;99.90
9537;DHT22;4807;48.024;11.726;2023-07-16T04:54:44;19.10;99.90
9537;DHT22;4807;48.024;11.726;2023-07-16T04:57:52;19.10;99.90
9537;DHT22;4807;48.024;11.726;2023-07-16T05:01:01;19.00;99.90
9537;DHT22;4807;48.024;11.726;2023-07-16T05:04:09;18.90;99.90
9537;DHT22;4807;48.024;11.726;2023-07-16T05:07:18;18.90;99.90
9537;DHT22;4807;48.024;11.726;2023-07-16T05:10:28;18.90;99.90
9537;DHT22;4807;48.024;11.726;2023-07-16T05:13:36;19.00;99.90
9537;DHT22;4807;48.024;11.726;2023-07-16T05:16:45;19.00;99.90
9537;DHT22;4807;48.024;11.726;2023-07-16T05:19:53;19.20;99.90
9537;DHT22;4807;48.024;11.726;2023-07-16T05:23:02;19.30;99.90
9537;DHT22;4807;48.024;11.726;2023-07-16T05:26:12;19.30;99.90
9537;DHT22;4807;48.024;11.726;2023-07-16T05:29:21;19.40;99.90
9537;DHT22;4807;48.024;11.726;2023-07-16T05:32:30;19.40;99.90
9537;DHT22;4807;48.024;11.726;2023-07-16T05:35:39;19.50;99.90
9537;DHT22;4807;48.024;11.726;2023-07-16T05:38:47;19.70;99.90
9537;DHT22;4807;48.024;11.726;2023-07-16T05:41:57;19.70;99.90
9537;DHT22;4807;48.024;11.726;2023-07-16T05:45:06;19.90;99.90
9537;DHT22;4807;48.024;11.726;2023-07-16T05:48:15;20.10;99.90
9537;DHT22;4807;48.024;11.726;2023-07-16T05:51:24;20.30;99.90
9537;DHT22;4807;48.024;11.726;2023-07-16T05:54:32;20.50;99.90
9537;DHT22;4807;48.024;11.726;2023-07-16T05:57:43;20.50;99.90
9537;DHT22;4807;48.024;11.726;2023-07-16T06:00:51;20.70;99.90
9537;DHT22;4807;48.024;11.726;2023-07-16T06:04:00;20.90;99.90
9537;DHT22;4807;48.024;11.726;2023-07-16T06:07:09;21.10;99.90
9537;DHT22;4807;48.024;11.726;2023-07-16T08:51:20;27.00;94.50
9537;DHT22;4807;48.024;11.726;2023-07-16T08:54:31;27.30;92.70
9537;DHT22;4807;48.024;11.726;2023-07-16T08:57:41;26.40;94.30
9537;DHT22;4807;48.024;11.726;2023-07-16T09:00:52;26.90;88.90
9537;DHT22;4807;48.024;11.726;2023-07-16T09:04:01;28.20;88.70
9537;DHT22;4807;48.024;11.726;2023-07-16T09:07:11;29.50;80.60
9537;DHT22;4807;48.024;11.726;2023-07-16T09:10:20;29.50;78.80
9537;DHT22;4807;48.024;11.726;2023-07-16T09:13:29;29.00;83.00
9537;DHT22;4807;48.024;11.726;2023-07-16T09:16:38;28.00;85.00
9537;DHT22;4807;48.024;11.726;2023-07-16T09:19:46;28.00;83.40
9537;DHT22;4807;48.024;11.726;2023-07-16T09:22:57;28.10;85.20
9537;DHT22;4807;48.024;11.726;2023-07-16T09:26:05;27.80;84.80
9537;DHT22;4807;48.024;11.726;2023-07-16T09:29:13;27.60;82.20
9537;DHT22;4807;48.024;11.726;2023-07-16T09:32:21;26.30;88.80
9537;DHT22;4807;48.024;11.726;2023-07-16T09:35:30;25.10;91.70
9537;DHT22;4807;48.024;11.726;2023-07-16T09:38:40;24.70;91.90
9537;DHT22;4807;48.024;11.726;2023-07-16T09:41:50;24.90;93.30
9537;DHT22;4807;48.024;11.726;2023-07-16T09:44:59;26.00;91.50
9537;DHT22;4807;48.024;11.726;2023-07-16T09:48:09;26.20;90.60
9537;DHT22;4807;48.024;11.726;2023-07-16T09:51:19;26.40;90.30
9537;DHT22;4807;48.024;11.726;2023-07-16T09:54:32;26.70;88.10
9537;DHT22;4807;48.024;11.726;2023-07-16T09:57:46;27.00;85.80
9537;DHT22;4807;48.024;11.726;2023-07-16T10:00:57;26.70;90.10
9537;DHT22;4807;48.024;11.726;2023-07-16T10:04:12;26.50;89.70
9537;DHT22;4807;48.024;11.726;2023-07-16T10:07:25;26.10;90.50
9537;DHT22;4807;48.024;11.726;2023-07-16T10:10:43;25.80;90.60
9537;DHT22;4807;48.024;11.726;2023-07-16T10:13:53;25.80;91.10
9537;DHT22;4807;48.024;11.726;2023-07-16T10:17:02;25.80;91.40
9537;DHT22;4807;48.024;11.726;2023-07-16T10:20:13;25.60;91.40
9537;DHT22;4807;48.024;11.726;2023-07-16T10:23:21;25.30;90.90
9537;DHT22;4807;48.024;11.726;2023-07-16T10:26:31;25.80;93.00
9537;DHT22;4807;48.024;11.726;2023-07-16T10:29:39;26.20;90.30
9537;DHT22;4807;48.024;11.726;2023-07-16T10:32:51;26.50;90.20
9537;DHT22;4807;48.024;11.726;2023-07-16T10:36:00;26.60;89.60
9537;DHT22;4807;48.024;11.726;2023-07-16T10:39:14;26.80;87.30
9537;DHT22;4807;48.024;11.726;2023-07-16T10:42:26;26.70;90.50
9537;DHT22;4807;48.024;11.726;2023-07-16T10:45:35;26.90;90.10
9537;DHT22;4807;48.024;11.726;2023-07-16T10:48:46;27.10;90.00
9537;DHT22;4807;48.024;11.726;2023-07-16T10:51:55;27.00;88.10
9537;DHT22;4807;48.024;11.726;2023-07-16T10:55:06;27.20;87.20
9537;DHT22;4807;48.024;11.726;2023-07-16T10:58:17;27.00;89.00
9537;DHT22;4807;48.024;11.726;2023-07-16T11:01:29;27.20;87.30
9537;DHT22;4807;48.024;11.726;2023-07-16T11:04:37;27.40;85.40
9537;DHT22;4807;48.024;11.726;2023-07-16T11:07:47;27.40;87.00
9537;DHT22;4807;48.024;11.726;2023-07-16T11:11:01;27.40;87.70
9537;DHT22;4807;48.024;11.726;2023-07-16T11:14:11;28.10;86.60
9537;DHT22;4807;48.024;11.726;2023-07-16T11:17:19;28.60;82.50
9537;DHT22;4807;48.024;11.726;2023-07-16T11:20:30;27.90;80.80
9537;DHT22;4807;48.024;11.726;2023-07-16T11:23:38;27.90;81.60
9537;DHT22;4807;48.024;11.726;2023-07-16T11:26:50;27.10;85.50
9537;DHT22;4807;48.024;11.726;2023-07-16T11:30:00;27.20;87.00
9537;DHT22;4807;48.024;11.726;2023-07-16T11:33:10;27.30;86.60
9537;DHT22;4807;48.024;11.726;2023-07-16T11:36:19;27.50;84.70
9537;DHT22;4807;48.024;11.726;2023-07-16T11:39:28;27.60;83.40
9537;DHT22;4807;48.024;11.726;2023-07-16T11:42:37;27.10;84.60
9537;DHT22;4807;48.024;11.726;2023-07-16T11:45:48;27.30;86.70
9537;DHT22;4807;48.024;11.726;2023-07-16T11:48:57;27.60;86.00
9537;DHT22;4807;48.024;11.726;2023-07-16T11:52:06;28.30;84.60
9537;DHT22;4807;48.024;11.726;2023-07-16T11:55:15;28.50;82.30
9537;DHT22;4807;48.024;11.726;2023-07-16T11:58:23;29.10;82.80
9537;DHT22;4807;48.024;11.726;2023-07-16T12:01:33;29.20;78.10
9537;DHT22;4807;48.024;11.726;2023-07-16T12:04:42;28.00;77.70
9537;DHT22;4807;48.024;11.726;2023-07-16T12:07:50;27.00;82.30
9537;DHT22;4807;48.024;11.726;2023-07-16T12:10:59;27.20;83.90
9537;DHT22;4807;48.024;11.726;2023-07-16T12:14:08;27.20;82.20
9537;DHT22;4807;48.024;11.726;2023-07-16T12:17:20;27.40;82.10
9537;DHT22;4807;48.024;11.726;2023-07-16T12:20:29;27.30;79.80
9537;DHT22;4807;48.024;11.726;2023-07-16T12:23:37;27.30;80.40
9537;DHT22;4807;48.024;11.726;2023-07-16T12:26:45;27.50;84.80
9537;DHT22;4807;48.024;11.726;2023-07-16T12:29:54;28.00;81.20
9537;DHT22;4807;48.024;11.726;2023-07-16T12:33:04;28.60;81.50
9537;DHT22;4807;48.024;11.726;2023-07-16T12:36:12;28.60;77.70
9537;DHT22;4807;48.024;11.726;2023-07-16T12:39:22;28.20;79.60
9537;DHT22;4807;48.024;11.726;2023-07-16T12:42:30;28.00;82.30
9537;DHT22;4807;48.024;11.726;2023-07-16T12:45:38;28.10;80.20
9537;DHT22;4807;48.024;11.726;2023-07-16T12:48:48;28.50;80.00
9537;DHT22;4807;48.024;11.726;2023-07-16T12:51:56;28.80;79.60
9537;DHT22;4807;48.024;11.726;2023-07-16T12:55:05;29.20;79.80
9537;DHT22;4807;48.024;11.726;2023-07-16T12:58:14;29.40;76.60
9537;DHT22;4807;48.024;11.726;2023-07-16T13:01:22;29.10;78.90
9537;DHT22;4807;48.024;11.726;2023-07-16T13:04:32;29.30;76.70
9537;DHT22;4807;48.024;11.726;2023-07-16T13:07:41;29.10;75.60
9537;DHT22;4807;48.024;11.726;2023-07-16T13:10:49;28.80;77.10
9537;DHT22;4807;48.024;11.726;2023-07-16T13:13:57;28.30;80.50
9537;DHT22;4807;48.024;11.726;2023-07-16T13:17:05;28.10;77.90
9537;DHT22;4807;48.024;11.726;2023-07-16T13:20:15;27.90;78.80
9537;DHT22;4807;48.024;11.726;2023-07-16T13:23:25;27.60;79.30
9537;DHT22;4807;48.024;11.726;2023-07-16T13:26:33;27.10;82.10
9537;DHT22;4807;48.024;11.726;2023-07-16T13:29:42;26.80;83.20
9537;DHT22;4807;48.024;11.726;2023-07-16T13:32:50;27.30;82.60
9537;DHT22;4807;48.024;11.726;2023-07-16T13:36:03;27.60;80.10
9537;DHT22;4807;48.024;11.726;2023-07-16T13:39:13;27.40;81.50
9537;DHT22;4807;48.024;11.726;2023-07-16T13:42:21;27.60;81.60
9537;DHT22;4807;48.024;11.726;2023-07-16T13:45:30;28.10;81.00
9537;DHT22;4807;48.024;11.726;2023-07-16T13:48:40;28.30;78.10
9537;DHT22;4807;48.024;11.726;2023-07-16T13:52:06;27.90;80.90
9537;DHT22;4807;48.024;11.726;2023-07-16T13:55:14;27.60;81.90
9537;DHT22;4807;48.024;11.726;2023-07-16T13:58:24;27.50;83.40
9537;DHT22;4807;48.024;11.726;2023-07-16T14:01:32;27.70;81.60
9537;DHT22;4807;48.024;11.726;2023-07-16T14:04:41;27.70;82.30
9537;DHT22;4807;48.024;11.726;2023-07-16T14:07:52;27.90;81.60
9537;DHT22;4807;48.024;11.726;2023-07-16T14:11:01;28.00;79.00
9537;DHT22;4807;48.024;11.726;2023-07-16T14:14:09;27.70;79.00
9537;DHT22;4807;48.024;11.726;2023-07-16T14:17:20;27.20;83.60
9537;DHT22;4807;48.024;11.726;2023-07-16T14:20:28;27.20;84.00
9537;DHT22;4807;48.024;11.726;2023-07-16T14:23:38;27.20;84.70
9537;DHT22;4807;48.024;11.726;2023-07-16T14:26:46;27.10;84.50
9537;DHT22;4807;48.024;11.726;2023-07-16T14:29:57;27.30;85.00
9537;DHT22;4807;48.024;11.726;2023-07-16T14:33:13;27.50;82.20
9537;DHT22;4807;48.024;11.726;2023-07-16T14:36:22;27.50;83.00
9537;DHT22;4807;48.024;11.726;2023-07-16T14:39:33;26.00;85.50
9537;DHT22;4807;48.024;11.726;2023-07-16T14:42:41;25.90;86.50
9537;DHT22;4807;48.024;11.726;2023-07-16T14:45:50;25.50;88.80
9537;DHT22;4807;48.024;11.726;2023-07-16T14:48:59;25.70;89.90
9537;DHT22;4807;48.024;11.726;2023-07-16T14:52:10;26.00;89.30
9537;DHT22;4807;48.024;11.726;2023-07-16T14:55:20;26.20;88.10
9537;DHT22;4807;48.024;11.726;2023-07-16T14:58:29;26.20;88.50
9537;DHT22;4807;48.024;11.726;2023-07-16T15:01:38;26.30;87.90
9537;DHT22;4807;48.024;11.726;2023-07-16T15:04:46;26.20;87.50
9537;DHT22;4807;48.024;11.726;2023-07-16T15:07:55;26.20;87.90
9537;DHT22;4807;48.024;11.726;2023-07-16T15:11:05;26.10;89.20
9537;DHT22;4807;48.024;11.726;2023-07-16T15:14:13;26.00;89.10
9537;DHT22;4807;48.024;11.726;2023-07-16T15:17:22;25.50;90.20
9537;DHT22;4807;48.024;11.726;2023-07-16T15:20:30;25.80;90.10
9537;DHT22;4807;48.024;11.726;2023-07-16T15:23:43;25.80;90.40
9537;DHT22;4807;48.024;11.726;2023-07-16T15:26:54;26.00;90.00
9537;DHT22;4807;48.024;11.726;2023-07-16T15:30:03;25.70;90.40
9537;DHT22;4807;48.024;11.726;2023-07-16T15:33:12;25.40;91.50
9537;DHT22;4807;48.024;11.726;2023-07-16T15:36:20;25.10;91.60
9537;DHT22;4807;48.024;11.726;2023-07-16T15:39:29;25.10;92.20
9537;DHT22;4807;48.024;11.726;2023-07-16T15:42:40;25.40;92.20
9537;DHT22;4807;48.024;11.726;2023-07-16T15:45:49;25.70;91.30
9537;DHT22;4807;48.024;11.726;2023-07-16T15:48:57;26.00;90.90
9537;DHT22;4807;48.024;11.726;2023-07-16T15:52:06;26.10;91.40
9537;DHT22;4807;48.024;11.726;2023-07-16T15:55:15;25.70;91.00
9537;DHT22;4807;48.024;11.726;2023-07-16T15:58:26;25.50;91.90
9537;DHT22;4807;48.024;11.726;2023-07-16T16:01:35;25.60;91.80
9537;DHT22;4807;48.024;11.726;2023-07-16T16:04:43;25.30;91.70
9537;DHT22;4807;48.024;11.726;2023-07-16T16:08:12;25.00;92.50
9537;DHT22;4807;48.024;11.726;2023-07-16T16:11:23;24.70;93.30
9537;DHT22;4807;48.024;11.726;2023-07-16T16:14:33;24.70;93.30
9537;DHT22;4807;48.024;11.726;2023-07-16T16:17:42;24.80;93.30
9537;DHT22;4807;48.024;11.726;2023-07-16T16:20:50;25.00;93.30
9537;DHT22;4807;48.024;11.726;2023-07-16T16:23:59;25.30;92.60
9537;DHT22;4807;48.024;11.726;2023-07-16T16:27:08;25.40;92.40
9537;DHT22;4807;48.024;11.726;2023-07-16T16:30:18;25.40;92.20
9537;DHT22;4807;48.024;11.726;2023-07-16T16:33:27;25.40;92.00
9537;DHT22;4807;48.024;11.726;2023-07-16T16:36:36;25.40;92.50
9537;DHT22;4807;48.024;11.726;2023-07-16T16:39:44;25.20;92.40
9537;DHT22;4807;48.024;11.726;2023-07-16T16:42:53;25.00;92.50
9537;DHT22;4807;48.024;11.726;2023-07-16T16:46:03;24.70;92.80
9537;DHT22;4807;48.024;11.726;2023-07-16T16:49:12;24.60;92.90
9537;DHT22;4807;48.024;11.726;2023-07-16T16:52:21;24.40;93.40
9537;DHT22;4807;48.024;11.726;2023-07-16T16:55:29;24.40;93.50
9537;DHT22;4807;48.024;11.726;2023-07-16T16:58:38;24.30;93.40
9537;DHT22;4807;48.024;11.726;2023-07-16T17:01:49;24.20;93.50
9537;DHT22;4807;48.024;11.726;2023-07-16T17:04:57;24.10;93.40
9537;DHT22;4807;48.024;11.726;2023-07-16T17:08:06;24.10;94.00
9537;DHT22;4807;48.024;11.726;2023-07-16T17:11:14;24.00;93.90
9537;DHT22;4807;48.024;11.726;2023-07-16T17:14:24;23.90;94.20
9537;DHT22;4807;48.024;11.726;2023-07-16T17:17:34;24.00;94.50
9537;DHT22;4807;48.024;11.726;2023-07-16T17:20:43;23.90;94.40
9537;DHT22;4807;48.024;11.726;2023-07-16T17:23:51;24.10;94.50
9537;DHT22;4807;48.024;11.726;2023-07-16T17:27:00;24.20;94.30
9537;DHT22;4807;48.024;11.726;2023-07-16T17:30:09;24.30;94.20
9537;DHT22;4807;48.024;11.726;2023-07-16T17:33:19;24.30;93.80
9537;DHT22;4807;48.024;11.726;2023-07-16T17:36:30;24.30;94.10
9537;DHT22;4807;48.024;11.726;2023-07-16T17:39:38;24.30;94.30
9537;DHT22;4807;48.024;11.726;2023-07-16T17:42:47;24.30;94.10
9537;DHT22;4807;48.024;11.726;2023-07-16T17:45:56;24.30;94.10
9537;DHT22;4807;48.024;11.726;2023-07-16T17:49:07;24.20;94.20
9537;DHT22;4807;48.024;11.726;2023-07-16T17:52:16;24.20;94.00
9537;DHT22;4807;48.024;11.726;2023-07-16T17:55:24;24.10;94.40
9537;DHT22;4807;48.024;11.726;2023-07-16T17:58:33;24.00;94.60
9537;DHT22;4807;48.024;11.726;2023-07-16T18:01:43;23.90;94.60
9537;DHT22;4807;48.024;11.726;2023-07-16T18:04:54;23.90;95.00
9537;DHT22;4807;48.024;11.726;2023-07-16T18:08:05;23.80;95.60
9537;DHT22;4807;48.024;11.726;2023-07-16T18:11:14;23.80;96.10
9537;DHT22;4807;48.024;11.726;2023-07-16T18:14:22;23.80;96.50
9537;DHT22;4807;48.024;11.726;2023-07-16T18:17:31;23.90;95.50
9537;DHT22;4807;48.024;11.726;2023-07-16T18:20:41;24.20;95.10
9537;DHT22;4807;48.024;11.726;2023-07-16T18:23:50;24.20;95.40
9537;DHT22;4807;48.024;11.726;2023-07-16T18:26:58;24.30;95.10
9537;DHT22;4807;48.024;11.726;2023-07-16T18:30:07;24.40;95.10
9537;DHT22;4807;48.024;11.726;2023-07-16T18:33:16;24.30;95.20
9537;DHT22;4807;48.024;11.726;2023-07-16T18:36:28;24.20;95.70
9537;DHT22;4807;48.024;11.726;2023-07-16T18:39:36;24.10;95.20
9537;DHT22;4807;48.024;11.726;2023-07-16T18:42:45;24.20;95.40
9537;DHT22;4807;48.024;11.726;2023-07-16T18:45:56;24.10;96.40
9537;DHT22;4807;48.024;11.726;2023-07-16T18:49:05;23.90;98.80
9537;DHT22;4807;48.024;11.726;2023-07-16T18:52:15;23.60;99.90
9537;DHT22;4807;48.024;11.726;2023-07-16T18:55:25;23.40;99.90
9537;DHT22;4807;48.024;11.726;2023-07-16T18:58:33;23.30;99.90
9537;DHT22;4807;48.024;11.726;2023-07-16T19:01:45;23.00;99.90
9537;DHT22;4807;48.024;11.726;2023-07-16T19:05:08;22.80;99.90
9537;DHT22;4807;48.024;11.726;2023-07-16T19:08:19;22.50;99.90
9537;DHT22;4807;48.024;11.726;2023-07-16T19:11:27;22.40;99.90
9537;DHT22;4807;48.024;11.726;2023-07-16T19:14:36;22.30;99.90
9537;DHT22;4807;48.024;11.726;2023-07-16T19:17:45;22.10;99.90
9537;DHT22;4807;48.024;11.726;2023-07-16T19:20:54;21.90;99.90
9537;DHT22;4807;48.024;11.726;2023-07-16T19:24:04;21.90;99.90
9537;DHT22;4807;48.024;11.726;2023-07-16T19:27:13;21.80;99.90
9537;DHT22;4807;48.024;11.726;2023-07-16T19:30:21;21.70;99.90
9537;DHT22;4807;48.024;11.726;2023-07-16T19:33:30;21.60;99.90
9537;DHT22;4807;48.024;11.726;2023-07-16T19:36:38;21.50;99.90
9537;DHT22;4807;48.024;11.726;2023-07-16T19:39:49;21.40;99.90
9537;DHT22;4807;48.024;11.726;2023-07-16T19:42:57;21.20;99.90
9537;DHT22;4807;48.024;11.726;2023-07-16T19:46:06;21.00;99.90
9537;DHT22;4807;48.024;11.726;2023-07-16T19:49:14;20.90;99.90
9537;DHT22;4807;48.024;11.726;2023-07-16T19:52:23;20.70;99.90
9537;DHT22;4807;48.024;11.726;2023-07-16T19:55:33;20.70;99.90
9537;DHT22;4807;48.024;11.726;2023-07-16T19:58:43;20.60;99.90
9537;DHT22;4807;48.024;11.726;2023-07-16T20:01:52;20.50;99.90
9537;DHT22;4807;48.024;11.726;2023-07-16T20:05:00;20.50;99.90
9537;DHT22;4807;48.024;11.726;2023-07-16T20:08:12;20.60;99.90
9537;DHT22;4807;48.024;11.726;2023-07-16T20:11:23;20.70;99.90
9537;DHT22;4807;48.024;11.726;2023-07-16T20:14:32;20.70;99.90
9537;DHT22;4807;48.024;11.726;2023-07-16T20:17:40;20.60;99.90
9537;DHT22;4807;48.024;11.726;2023-07-16T20:20:49;20.70;99.90
9537;DHT22;4807;48.024;11.726;2023-07-16T20:23:59;20.70;99.90
9537;DHT22;4807;48.024;11.726;2023-07-16T20:27:08;20.80;99.90
9537;DHT22;4807;48.024;11.726;2023-07-16T20:30:17;21.70;99.90
9537;DHT22;4807;48.024;11.726;2023-07-16T20:33:26;20.80;99.90
9537;DHT22;4807;48.024;11.726;2023-07-16T20:36:34;20.80;99.90
9537;DHT22;4807;48.024;11.726;2023-07-16T20:39:42;20.80;99.90
9537;DHT22;4807;48.024;11.726;2023-07-16T20:42:52;20.80;99.90
9537;DHT22;4807;48.024;11.726;2023-07-16T20:46:00;20.70;99.90
9537;DHT22;4807;48.024;11.726;2023-07-16T20:49:09;20.70;99.90
9537;DHT22;4807;48.024;11.726;2023-07-16T20:52:17;20.70;99.90
9537;DHT22;4807;48.024;11.726;2023-07-16T20:55:25;20.80;99.90
9537;DHT22;4807;48.024;11.726;2023-07-16T20:58:37;20.90;99.90
9537;DHT22;4807;48.024;11.726;2023-07-16T21:01:45;20.80;99.90
9537;DHT22;4807;48.024;11.726;2023-07-16T21:04:54;20.70;99.90
9537;DHT22;4807;48.024;11.726;2023-07-16T21:08:02;20.70;99.90
9537;DHT22;4807;48.024;11.726;2023-07-16T21:11:11;20.60;99.90
9537;DHT22;4807;48.024;11.726;2023-07-16T21:14:21;20.60;99.90
9537;DHT22;4807;48.024;11.726;2023-07-16T21:17:29;20.50;99.90
9537;DHT22;4807;48.024;11.726;2023-07-16T21:20:38;20.40;99.90
9537;DHT22;4807;48.024;11.726;2023-07-16T21:23:47;20.40;99.90
9537;DHT22;4807;48.024;11.726;2023-07-16T21:26:55;20.30;99.90
9537;DHT22;4807;48.024;11.726;2023-07-16T21:30:06;20.30;99.90
9537;DHT22;4807;48.024;11.726;2023-07-16T21:33:16;20.20;99.90
9537;DHT22;4807;48.024;11.726;2023-07-16T21:36:24;20.20;99.90
9537;DHT22;4807;48.024;11.726;2023-07-16T21:39:33;20.20;99.90
9537;DHT22;4807;48.024;11.726;2023-07-16T21:42:41;20.10;99.90
9537;DHT22;4807;48.024;11.726;2023-07-16T21:45:52;20.20;99.90
9537;DHT22;4807;48.024;11.726;2023-07-16T21:49:01;20.10;99.90
9537;DHT22;4807;48.024;11.726;2023-07-16T21:52:09;20.10;99.90
9537;DHT22;4807;48.024;11.726;2023-07-16T21:55:17;20.00;99.90
9537;DHT22;4807;48.024;11.726;2023-07-16T21:58:26;19.90;99.90
9537;DHT22;4807;48.024;11.726;2023-07-16T22:01:35;19.80;99.90
9537;DHT22;4807;48.024;11.726;2023-07-16T22:04:44;19.80;99.90
9537;DHT22;4807;48.024;11.726;2023-07-16T22:07:53;19.70;99.90
9537;DHT22;4807;48.024;11.726;2023-07-16T22:11:01;19.70;99.90
9537;DHT22;4807;48.024;11.726;2023-07-16T22:14:10;19.60;99.90
9537;DHT22;4807;48.024;11.726;2023-07-16T22:17:20;19.60;99.90
9537;DHT22;4807;48.024;11.726;2023-07-16T22:20:28;19.60;99.90
9537;DHT22;4807;48.024;11.726;2023-07-16T22:23:36;19.60;99.90
9537;DHT22;4807;48.024;11.726;2023-07-16T22:26:45;19.60;99.90
9537;DHT22;4807;48.024;11.726;2023-07-16T22:29:53;19.50;99.90
9537;DHT22;4807;48.024;11.726;2023-07-16T22:33:03;19.50;99.90
9537;DHT22;4807;48.024;11.726;2023-07-16T22:36:11;19.50;99.90
9537;DHT22;4807;48.024;11.726;2023-07-16T22:39:19;19.40;99.90
9537;DHT22;4807;48.024;11.726;2023-07-16T22:42:28;19.40;99.90
9537;DHT22;4807;48.024;11.726;2023-07-16T22:45:37;17.80;99.90
9537;DHT22;4807;48.024;11.726;2023-07-16T22:48:46;19.40;99.90
9537;DHT22;4807;48.024;11.726;2023-07-16T22:51:59;19.50;99.90
9537;DHT22;4807;48.024;11.726;2023-07-16T22:55:08;19.50;99.90
9537;DHT22;4807;48.024;11.726;2023-07-16T22:58:19;19.40;99.90
9537;DHT22;4807;48.024;11.726;2023-07-16T23:01:27;19.40;99.90